Weather reports worldwide

Advertisment
Zinnwald-Georgenfeld, Germany (10582): temperature & dewpoint: 15.01.2021 07:00:00 - 21.01.2021 07:00:00 (CET)Zinnwald-Georgenfeld, Germany (10582): temperature 5cm & temperature -5cm: 15.01.2021 07:00:00 - 21.01.2021 07:00:00 (CET)Zinnwald-Georgenfeld, Germany (10582): temperature -20cm & temperature -100cm: 15.01.2021 07:00:00 - 21.01.2021 07:00:00 (CET)Zinnwald-Georgenfeld, Germany (10582): wind speed & gusts: 15.01.2021 07:00:00 - 21.01.2021 07:00:00 (CET)Zinnwald-Georgenfeld, Germany (10582): wind direction: 15.01.2021 07:00:00 - 21.01.2021 07:00:00 (CET)Zinnwald-Georgenfeld, Germany (10582): visibility: 15.01.2021 07:00:00 - 21.01.2021 07:00:00 (CET)Zinnwald-Georgenfeld, Germany (10582): precipitation: 15.01.2021 07:00:00 - 21.01.2021 07:00:00 (CET)
Date & Time tt [°C] td [°C] tt 5cm [°C] tt -5cm [°C] tt -20cm [°C] tt -100cm [°C] ff [km/h] ff [kn] fx [km/h] fx [kn] dd vv [km] rr [mm]
21.01.2021 07:00:00 - - - - - - - - - - - - -
21.01.2021 06:00:00 -2,6 -2,8 0,0 0,2 0,9 3,2 31 17 42 23 S 0,1 0,0
21.01.2021 05:00:00 -2,2 -2,6 0,0 0,2 0,9 3,2 28 15 39 21 S 0,1 0,0
21.01.2021 04:00:00 -1,3 -2,4 0,0 0,2 0,9 3,2 27 14 39 21 S 16 0,0
21.01.2021 03:00:00 -0,2 -2,7 0,0 0,2 0,9 3,2 29 16 44 24 S 63 0,0
21.01.2021 02:00:00 0,3 -2,8 0,0 0,2 0,9 3,2 31 17 45 24 S 62 0,0
21.01.2021 01:00:00 0,3 -2,5 0,0 0,2 0,9 3,2 23 12 42 23 S 70 0,0
21.01.2021 00:00:00 1,6 -2,5 0,0 0,2 0,9 3,2 28 15 40 22 S 73 0,0
20.01.2021 23:00:00 2,0 -2,7 0,0 0,2 0,9 3,2 30 16 42 23 SSW 75 0,0
20.01.2021 22:00:00 1,4 -2,6 0,0 0,2 0,9 3,2 32 17 40 22 SSW 75 0,0
20.01.2021 21:00:00 0,5 -2,0 0,0 0,2 0,9 3,2 30 16 40 22 S 66 0,0
20.01.2021 20:00:00 -0,1 -2,5 0,0 0,2 0,9 3,2 29 15 39 21 S 65 0,0
20.01.2021 19:00:00 0,0 -2,0 0,0 0,2 0,9 3,2 26 14 36 20 S 65 0,0
20.01.2021 18:00:00 -0,3 -1,9 0,0 0,2 0,9 3,2 26 14 34 18 S 53 0,0
20.01.2021 17:00:00 0,2 -2,0 0,0 0,2 0,9 3,2 26 14 38 21 SSW 66 0,0
20.01.2021 16:00:00 -0,2 -1,5 0,0 0,2 0,9 3,2 24 13 36 19 S 59 0,0
20.01.2021 15:00:00 -0,3 -1,2 0,0 0,2 0,9 3,2 24 13 40 22 S 34 0,0
20.01.2021 14:00:00 0,1 -1,0 0,0 0,2 0,9 3,2 31 17 40 22 S 28 0,0
20.01.2021 13:00:00 -0,5 -0,8 0,0 0,2 0,9 3,2 26 14 35 19 S 2,1 0,0
20.01.2021 12:00:00 -0,5 -0,8 0,0 0,2 0,9 3,2 23 13 33 18 S 0,5 0,0
20.01.2021 11:00:00 0,4 -0,7 0,0 0,2 0,9 3,2 24 13 38 21 S 10 0,0
20.01.2021 10:00:00 0,3 -1,2 0,0 0,2 0,9 3,2 21 12 46 25 SSW 1,0 0,0
20.01.2021 09:00:00 2,4 -1,7 0,0 0,2 0,9 3,2 33 18 50 27 SW 75 0,0
20.01.2021 08:00:00 1,7 -1,1 0,0 0,2 0,9 3,2 31 17 46 25 SW 75 0,0
20.01.2021 07:00:00 1,8 -0,6 0,0 0,2 0,9 3,2 29 16 46 25 WSW 75 0,0
20.01.2021 06:00:00 1,5 -0,2 0,0 0,2 0,9 3,2 26 14 41 22 WSW 75 0,0
20.01.2021 05:00:00 0,7 -0,8 0,0 0,2 0,9 3,2 22 12 37 20 WSW 75 0,0
20.01.2021 04:00:00 0,4 -0,9 0,0 0,2 0,9 3,2 22 12 49 26 W 75 0,0
20.01.2021 03:00:00 0,7 0,1 0,0 0,2 0,9 3,2 27 14 45 24 WSW 75 0,0
20.01.2021 02:00:00 0,6 0,3 0,0 0,2 0,9 3,2 26 14 44 24 WSW 75 0,0
20.01.2021 01:00:00 0,5 0,5 0,0 0,2 0,9 3,2 26 14 45 24 W 51 0,0
20.01.2021 00:00:00 0,3 0,3 0,0 0,2 0,9 3,2 23 13 42 23 W 0,4 0,0
19.01.2021 23:00:00 0,3 0,3 0,0 0,2 0,9 3,2 18 10 44 24 W 0,1 0,0
19.01.2021 22:00:00 0,2 0,2 0,0 0,2 0,9 3,2 19 10 47 25 W 0,1 0,0
19.01.2021 21:00:00 0,1 0,1 0,0 0,2 0,9 3,2 22 12 51 28 W 0,2 0,4
19.01.2021 20:00:00 0,0 0,0 0,0 0,2 0,9 3,2 26 14 51 27 W 0,4 0,4
19.01.2021 19:00:00 -0,5 -0,5 0,0 0,2 0,9 3,2 26 14 46 25 W 2,2 0,6
19.01.2021 18:00:00 -1,1 -1,3 0,0 0,2 0,9 3,2 25 14 48 26 W 1,7 1,0
19.01.2021 17:00:00 -1,5 -1,6 0,0 0,2 0,9 3,2 27 14 52 28 WSW 2,4 0,9
19.01.2021 16:00:00 -2,4 -2,7 0,0 0,2 0,9 3,2 27 15 45 25 SSW 1,2 1,0
19.01.2021 15:00:00 -2,7 -3,0 -0,1 0,2 0,9 3,2 34 18 44 24 SSW 1,3 0,6
19.01.2021 14:00:00 -2,7 -3,0 -0,1 0,2 0,9 3,2 31 17 41 22 S 1,5 0,1
19.01.2021 13:00:00 -2,9 -3,3 -0,1 0,2 0,9 3,2 31 17 41 22 S 5 0,0
19.01.2021 12:00:00 -3,0 -3,4 -0,1 0,2 0,9 3,2 32 17 46 25 SSW 13 0,0
19.01.2021 11:00:00 -2,7 -3,0 -0,1 0,2 0,9 3,2 28 15 36 20 SSW 2,5 0,0
19.01.2021 10:00:00 -2,7 -3,2 -0,1 0,2 0,9 3,2 24 13 34 18 SW 53 0,0
19.01.2021 09:00:00 -2,4 -2,8 -0,1 0,2 0,9 3,3 22 12 39 21 SSW 37 0,0
19.01.2021 08:00:00 -2,2 -2,6 -0,1 0,2 0,9 3,3 24 13 39 21 SW 41 0,0
19.01.2021 07:00:00 -2,1 -2,4 -0,1 0,2 0,9 3,3 23 13 42 23 WSW 25 0,0
19.01.2021 06:00:00 -2,1 -2,4 -0,1 0,2 0,9 3,3 21 11 45 24 WSW 39 0,0
19.01.2021 05:00:00 -2,1 -2,4 -0,1 0,2 0,9 3,3 20 11 44 24 W 29 0,0
19.01.2021 04:00:00 -2,0 -2,2 -0,1 0,2 0,9 3,3 24 13 50 27 W 18 0,0
19.01.2021 03:00:00 -1,9 -2,2 -0,1 0,2 0,9 3,3 27 15 51 27 W 21 0,0
19.01.2021 02:00:00 -2,0 -2,3 -0,1 0,2 0,9 3,3 24 13 49 27 W 6 0,3
19.01.2021 01:00:00 -2,0 -2,2 -0,1 0,2 0,9 3,3 23 13 46 25 W 1,8 0,7
19.01.2021 00:00:00 -2,1 -2,4 -0,1 0,2 0,9 3,3 26 14 45 24 W 1,3 0,3
18.01.2021 23:00:00 -2,1 -2,4 -0,1 0,2 0,9 3,3 27 15 51 28 W 4,8 0,3
18.01.2021 22:00:00 -2,2 -2,4 -0,1 0,2 0,9 3,3 20 11 42 23 W 3,6 0,3
18.01.2021 21:00:00 -2,2 -2,5 -0,1 0,2 0,9 3,3 21 12 44 24 W 2,5 0,5
18.01.2021 20:00:00 -2,2 -2,4 -0,1 0,2 0,9 3,3 21 11 40 22 W 1,2 0,4
18.01.2021 19:00:00 -2,3 -2,6 -0,1 0,2 0,9 3,3 22 12 41 22 W 2,9 0,0
18.01.2021 18:00:00 -2,5 -2,9 -0,1 0,2 0,9 3,3 24 13 42 23 W 6 0,0
18.01.2021 17:00:00 -2,4 -2,7 -0,1 0,2 0,9 3,3 16 9 40 22 W 16 0,1
18.01.2021 16:00:00 -2,3 -2,6 -0,1 0,2 0,9 3,3 17 9 37 20 WNW 3,6 0,0
18.01.2021 15:00:00 -2,2 -2,6 -0,1 0,2 0,9 3,3 24 13 47 25 WNW 0,5 0,0
18.01.2021 14:00:00 -2,3 -2,6 -0,1 0,2 0,9 3,3 22 12 39 21 WNW 0,1 0,0
18.01.2021 13:00:00 -2,4 -2,7 -0,2 0,2 0,9 3,3 22 12 45 25 WNW 0,1 0,0
18.01.2021 12:00:00 -2,6 -2,9 -0,3 0,2 0,9 3,3 22 12 37 20 WNW 0,1 0,4
18.01.2021 11:00:00 -3,0 -3,3 -0,2 0,2 0,9 3,3 20 11 37 20 WNW 1,4 1,2
18.01.2021 10:00:00 -3,6 -4,0 -0,2 0,2 0,9 3,3 21 11 37 20 WNW 1,0 0,7
18.01.2021 09:00:00 -4,2 -4,6 -0,2 0,2 0,9 3,3 14 8 28 15 WNW 1,1 0,1
18.01.2021 08:00:00 -5,0 -5,6 -0,2 0,2 0,9 3,3 19 10 31 17 WNW 1,2 0,1
18.01.2021 07:00:00 -5,5 -6,2 -0,2 0,2 0,9 3,3 19 11 34 18 W 2,8 0,0
18.01.2021 06:00:00 -6,0 -6,7 -0,2 0,2 0,9 3,3 17 9 25 13 W 1,9 0,1
18.01.2021 05:00:00 -6,4 -7,2 -0,2 0,2 0,9 3,3 17 9 26 14 W 5 0,0
18.01.2021 04:00:00 -6,8 -7,6 -0,2 0,2 0,9 3,3 16 8 23 12 W 3,8 0,0
18.01.2021 03:00:00 -7,3 -8,0 -0,2 0,2 0,9 3,3 14 8 26 14 W 8 0,0
18.01.2021 02:00:00 -8,2 -9,1 -0,1 0,2 0,9 3,3 19 10 29 15 W 19 0,0
18.01.2021 01:00:00 -9,2 -10,2 -0,1 0,2 0,9 3,3 17 9 24 13 WSW 17 0,0
18.01.2021 00:00:00 -9,5 -10,6 -0,1 0,2 0,9 3,3 20 11 25 13 WSW 19 0,0
17.01.2021 23:00:00 -10,1 -11,3 -0,1 0,2 0,9 3,3 16 9 22 12 SW 21 0,0
17.01.2021 22:00:00 -8,8 -10,0 -0,1 0,2 0,9 3,3 18 10 24 13 SW 40 0,0
17.01.2021 21:00:00 -8,9 -9,8 -0,1 0,2 0,9 3,3 12 6 23 12 WSW 26 0,0
17.01.2021 20:00:00 -9,4 -10,3 -0,1 0,2 0,9 3,3 13 7 16 9 SW 22 0,0
17.01.2021 19:00:00 -9,2 -10,3 -0,1 0,2 0,9 3,3 12 7 16 9 WSW 44 0,0
17.01.2021 18:00:00 -8,2 -9,1 -0,1 0,2 0,9 3,3 6 3 13 7 W 64 0,0
17.01.2021 17:00:00 -7,6 -8,3 -0,1 0,2 0,9 3,3 6 3 10 5 NNW 66 0,0
17.01.2021 16:00:00 -7,0 -8,0 -0,1 0,2 0,9 3,3 6 4 13 7 NNE 42 0,0
17.01.2021 15:00:00 -6,0 -6,7 -0,1 0,2 0,9 3,3 9 5 16 9 NE 15 0,0
17.01.2021 14:00:00 -5,4 -5,9 -0,1 0,2 0,9 3,3 5 3 11 6 NNW 51 0,0
17.01.2021 13:00:00 -5,4 -6,1 -0,1 0,2 0,9 3,3 5 3 11 6 N 73 0,0
17.01.2021 12:00:00 -5,5 -5,7 -0,1 0,2 0,9 3,3 5 3 8 4 NE 19 0,0
17.01.2021 11:00:00 -7,4 -7,7 -0,1 0,2 0,9 3,3 5 3 11 6 N 21 0,0
17.01.2021 10:00:00 -9,0 -9,6 -0,1 0,2 0,9 3,3 8 5 15 8 N 35 0,0
17.01.2021 09:00:00 -9,6 -10,6 -0,1 0,2 0,9 3,3 14 8 19 10 NW 30 0,0
17.01.2021 08:00:00 -9,5 -10,6 -0,1 0,2 0,9 3,3 13 7 23 12 NW 31 0,0
17.01.2021 07:00:00 -8,6 -9,6 -0,1 0,2 0,9 3,3 13 7 26 14 NNW 24 0,0
17.01.2021 06:00:00 -8,3 -9,2 -0,1 0,2 0,9 3,3 13 7 21 11 NW 15 0,0
17.01.2021 05:00:00 -8,2 -9,0 -0,1 0,2 0,9 3,3 11 6 26 14 NW 11 0,0
17.01.2021 04:00:00 -8,1 -9,1 -0,1 0,2 0,9 3,3 18 10 33 18 NW 11 0,0
17.01.2021 03:00:00 -8,1 -9,1 -0,1 0,2 0,9 3,3 20 11 32 18 NW 13 0,0
17.01.2021 02:00:00 -8,0 -8,9 -0,1 0,2 0,9 3,3 16 9 33 18 NW 0,6 0,0
17.01.2021 01:00:00 -8,2 -9,1 -0,1 0,2 0,9 3,3 17 9 31 17 NW 4,6 0,0
17.01.2021 00:00:00 -8,6 -9,6 -0,1 0,2 0,9 3,3 20 11 34 19 WNW 20 0,0
16.01.2021 23:00:00 -9,1 -10,2 -0,1 0,2 0,9 3,3 19 10 36 19 WNW 14 0,0
16.01.2021 22:00:00 -9,6 -10,8 -0,1 0,2 0,9 3,3 24 13 42 23 WNW 31 0,0
16.01.2021 21:00:00 -10,0 -11,2 -0,1 0,2 0,9 3,3 19 10 31 17 WNW 17 0,0
16.01.2021 20:00:00 -9,7 -10,8 -0,1 0,2 0,9 3,3 18 10 38 21 NW 8 0,0
16.01.2021 19:00:00 -9,7 -10,8 -0,1 0,2 0,9 3,3 22 12 40 21 WNW 6 0,0
16.01.2021 18:00:00 -9,6 -10,7 -0,1 0,2 0,9 3,3 23 12 38 20 NW 9 0,0
16.01.2021 17:00:00 -9,5 -10,7 -0,1 0,2 0,9 3,3 23 12 40 22 NW 7 0,0
16.01.2021 16:00:00 -9,2 -10,3 -0,1 0,2 0,9 3,3 18 10 43 23 WNW 8 0,0
16.01.2021 15:00:00 -9,2 -10,4 -0,1 0,2 0,9 3,3 21 11 38 20 WNW 7 0,0
16.01.2021 14:00:00 -9,1 -10,3 -0,1 0,2 0,9 3,3 22 12 40 21 WNW 14 0,0
16.01.2021 13:00:00 -9,0 -10,1 -0,1 0,2 0,9 3,3 23 12 37 20 WNW 14 0,0
16.01.2021 12:00:00 -9,0 -10,1 -0,1 0,2 0,9 3,3 19 10 33 18 WNW 9 0,0
16.01.2021 11:00:00 -9,1 -10,1 -0,1 0,2 0,9 3,3 21 11 36 20 NW 4,6 0,0
16.01.2021 10:00:00 -9,5 -10,6 -0,1 0,2 0,9 3,3 23 12 41 22 NW 2,8 0,1
16.01.2021 09:00:00 -9,8 -10,9 -0,1 0,2 1,0 3,3 21 12 39 21 NW 1,9 0,0
16.01.2021 08:00:00 -10,0 -11,2 -0,1 0,2 1,0 3,3 23 12 44 24 NNW 2,1 0,0
16.01.2021 07:00:00 -10,1 -11,3 -0,1 0,2 1,0 3,3 22 12 44 24 NNW 2,5 0,1
16.01.2021 06:00:00 -10,1 -11,3 -0,1 0,2 1,0 3,3 24 13 44 24 NNW 4,0 0,0
16.01.2021 05:00:00 -9,8 -11,1 -0,1 0,2 1,0 3,3 27 15 49 27 NNW 2,9 0,0
16.01.2021 04:00:00 -9,2 -10,4 -0,1 0,2 1,0 3,3 32 17 48 26 NNW 0,7 0,0
16.01.2021 03:00:00 -8,7 -9,8 -0,1 0,2 1,0 3,3 25 14 46 25 NNW 4,0 0,0
16.01.2021 02:00:00 -8,3 -9,4 -0,1 0,2 1,0 3,3 26 14 44 24 NNW 2,4 0,0
16.01.2021 01:00:00 -7,7 -8,8 -0,1 0,2 1,0 3,3 26 14 40 22 NNW 3,8 0,1
16.01.2021 00:00:00 -7,4 -8,4 -0,1 0,2 1,0 3,3 24 13 40 21 NNW 7 0,0
15.01.2021 23:00:00 -7,1 -7,9 -0,1 0,2 1,0 3,3 20 11 39 21 NNW 0,6 0,3
15.01.2021 22:00:00 -6,9 -7,7 -0,1 0,2 1,0 3,3 20 11 36 19 NNW 0,2 0,3
15.01.2021 21:00:00 -6,8 -7,5 -0,1 0,2 1,0 3,3 24 13 44 24 NNW 0,1 0,1
15.01.2021 20:00:00 -6,8 -7,6 -0,1 0,2 1,0 3,3 25 14 43 23 NNW 0,1 0,2
15.01.2021 19:00:00 -6,8 -7,6 -0,1 0,2 1,0 3,4 25 13 46 25 NNW 2,7 0,0
15.01.2021 18:00:00 -6,8 -7,8 -0,1 0,2 1,0 3,4 29 16 47 25 NNW 1,8 0,2
15.01.2021 17:00:00 -6,6 -7,4 -0,1 0,2 1,0 3,4 32 18 49 26 NNW 1,2 0,1
15.01.2021 16:00:00 -6,5 -7,5 -0,1 0,2 1,0 3,4 33 18 52 28 NNW 0,8 0,3
15.01.2021 15:00:00 -5,9 -6,7 -0,1 0,2 1,0 3,4 31 17 49 26 NNW 1,1 0,6
15.01.2021 14:00:00 -5,7 -6,6 -0,1 0,2 1,0 3,4 31 17 49 26 NNW 0,8 0,2
15.01.2021 13:00:00 -5,2 -6,0 -0,1 0,2 1,0 3,4 24 13 44 24 NNW 2,7 0,5
15.01.2021 12:00:00 -4,5 -5,1 -0,1 0,2 1,0 3,4 23 12 42 23 N 0,2 1,0
15.01.2021 11:00:00 -4,4 -5,0 -0,1 0,2 1,0 3,4 19 10 32 18 N 2,5 0,3
15.01.2021 10:00:00 -4,6 -5,2 -0,1 0,2 1,0 3,4 22 12 36 19 N 0,4 0,1
15.01.2021 09:00:00 -4,6 -5,1 -0,1 0,2 1,0 3,4 24 13 41 22 N 0,2 0,0
15.01.2021 08:00:00 -4,4 -5,0 -0,1 0,2 1,0 3,4 24 13 36 19 N 1,2 0,2
15.01.2021 07:00:00 -4,5 -5,1 -0,1 0,2 1,0 3,4 21 12 33 18 N 1,0 0,2

tt = temperature
td = dewpoint
tt 5cm = temperature 5cm
tt -5cm = temperature -5cm
tt -20cm = temperature -20cm
tt -100cm = temperature -100cm
ff = wind speed
fx = gusts
dd = wind direction
vv = visibility
rr = precipitation

Next stations